sensor_id;sensor_type;location;lat;lon;timestamp;temperature;humidity
6690;DHT22;3382;51.576;8.076;2023-03-03T00:00:48;3.00;99.90
6690;DHT22;3382;51.576;8.076;2023-03-03T00:03:18;3.00;99.90
6690;DHT22;3382;51.576;8.076;2023-03-03T00:05:44;3.00;99.90
6690;DHT22;3382;51.576;8.076;2023-03-03T00:08:10;3.00;99.90
6690;DHT22;3382;51.576;8.076;2023-03-03T00:10:37;3.00;99.90
6690;DHT22;3382;51.576;8.076;2023-03-03T00:13:02;3.20;99.90
6690;DHT22;3382;51.576;8.076;2023-03-03T00:15:29;3.00;99.90
6690;DHT22;3382;51.576;8.076;2023-03-03T00:17:55;3.00;99.90
6690;DHT22;3382;51.576;8.076;2023-03-03T00:25:57;3.30;99.90
6690;DHT22;3382;51.576;8.076;2023-03-03T00:28:45;3.00;99.90
6690;DHT22;3382;51.576;8.076;2023-03-03T00:31:20;3.00;99.90
6690;DHT22;3382;51.576;8.076;2023-03-03T00:33:51;3.00;99.90
6690;DHT22;3382;51.576;8.076;2023-03-03T00:36:28;3.00;99.90
6690;DHT22;3382;51.576;8.076;2023-03-03T00:39:44;3.00;99.90
6690;DHT22;3382;51.576;8.076;2023-03-03T00:41:45;3.00;99.90
6690;DHT22;3382;51.576;8.076;2023-03-03T00:46:53;3.00;99.90
6690;DHT22;3382;51.576;8.076;2023-03-03T00:49:27;3.00;99.90
6690;DHT22;3382;51.576;8.076;2023-03-03T00:51:53;3.00;99.90
6690;DHT22;3382;51.576;8.076;2023-03-03T00:54:18;3.00;99.90
6690;DHT22;3382;51.576;8.076;2023-03-03T00:56:44;3.00;99.90
6690;DHT22;3382;51.576;8.076;2023-03-03T00:59:10;3.00;99.90
6690;DHT22;3382;51.576;8.076;2023-03-03T01:01:36;3.00;99.90
6690;DHT22;3382;51.576;8.076;2023-03-03T01:04:02;3.00;99.90
6690;DHT22;3382;51.576;8.076;2023-03-03T01:06:27;3.00;99.90
6690;DHT22;3382;51.576;8.076;2023-03-03T01:08:53;2.90;99.90
6690;DHT22;3382;51.576;8.076;2023-03-03T01:11:23;2.80;99.90
6690;DHT22;3382;51.576;8.076;2023-03-03T01:13:51;2.90;99.90
6690;DHT22;3382;51.576;8.076;2023-03-03T01:16:18;2.90;99.90
6690;DHT22;3382;51.576;8.076;2023-03-03T01:18:43;2.90;99.90
6690;DHT22;3382;51.576;8.076;2023-03-03T01:21:10;2.40;99.90
6690;DHT22;3382;51.576;8.076;2023-03-03T01:23:35;3.00;99.90
6690;DHT22;3382;51.576;8.076;2023-03-03T01:26:01;2.90;99.90
6690;DHT22;3382;51.576;8.076;2023-03-03T01:28:27;2.90;99.90
6690;DHT22;3382;51.576;8.076;2023-03-03T01:30:53;2.90;99.90
6690;DHT22;3382;51.576;8.076;2023-03-03T01:33:19;2.90;99.90
6690;DHT22;3382;51.576;8.076;2023-03-03T01:35:46;2.80;99.90
6690;DHT22;3382;51.576;8.076;2023-03-03T01:38:13;3.00;99.90
6690;DHT22;3382;51.576;8.076;2023-03-03T01:40:39;2.80;99.90
6690;DHT22;3382;51.576;8.076;2023-03-03T01:43:05;2.80;99.90
6690;DHT22;3382;51.576;8.076;2023-03-03T01:46:18;3.00;99.90
6690;DHT22;3382;51.576;8.076;2023-03-03T01:48:30;2.90;99.90
6690;DHT22;3382;51.576;8.076;2023-03-03T01:51:04;2.80;99.90
6690;DHT22;3382;51.576;8.076;2023-03-03T01:53:43;2.80;99.90
6690;DHT22;3382;51.576;8.076;2023-03-03T01:56:10;2.80;99.90
6690;DHT22;3382;51.576;8.076;2023-03-03T01:58:41;2.90;99.90
6690;DHT22;3382;51.576;8.076;2023-03-03T02:01:13;2.90;99.90
6690;DHT22;3382;51.576;8.076;2023-03-03T02:03:42;2.90;99.90
6690;DHT22;3382;51.576;8.076;2023-03-03T02:06:14;3.00;99.90
6690;DHT22;3382;51.576;8.076;2023-03-03T02:11:21;2.90;99.90
6690;DHT22;3382;51.576;8.076;2023-03-03T02:13:47;2.90;99.90
6690;DHT22;3382;51.576;8.076;2023-03-03T02:16:12;2.90;99.90
6690;DHT22;3382;51.576;8.076;2023-03-03T02:18:38;2.80;99.90
6690;DHT22;3382;51.576;8.076;2023-03-03T02:21:10;3.00;99.90
6690;DHT22;3382;51.576;8.076;2023-03-03T02:24:09;3.30;99.90
6690;DHT22;3382;51.576;8.076;2023-03-03T02:26:39;2.80;99.90
6690;DHT22;3382;51.576;8.076;2023-03-03T02:29:06;2.90;99.90
6690;DHT22;3382;51.576;8.076;2023-03-03T02:31:32;2.80;99.90
6690;DHT22;3382;51.576;8.076;2023-03-03T02:33:58;2.80;99.90
6690;DHT22;3382;51.576;8.076;2023-03-03T02:36:29;2.80;99.90
6690;DHT22;3382;51.576;8.076;2023-03-03T02:46:25;2.90;99.90
6690;DHT22;3382;51.576;8.076;2023-03-03T02:48:51;2.80;99.90
6690;DHT22;3382;51.576;8.076;2023-03-03T02:51:16;2.80;99.90
6690;DHT22;3382;51.576;8.076;2023-03-03T02:53:42;2.70;99.90
6690;DHT22;3382;51.576;8.076;2023-03-03T02:56:08;2.70;99.90
6690;DHT22;3382;51.576;8.076;2023-03-03T02:58:34;2.70;99.90
6690;DHT22;3382;51.576;8.076;2023-03-03T03:01:00;2.70;99.90
6690;DHT22;3382;51.576;8.076;2023-03-03T03:03:26;2.70;99.90
6690;DHT22;3382;51.576;8.076;2023-03-03T03:05:51;2.70;99.90
6690;DHT22;3382;51.576;8.076;2023-03-03T03:08:17;2.70;99.90
6690;DHT22;3382;51.576;8.076;2023-03-03T03:10:42;2.70;99.90
6690;DHT22;3382;51.576;8.076;2023-03-03T03:13:09;2.70;99.90
6690;DHT22;3382;51.576;8.076;2023-03-03T03:15:35;2.70;99.90
6690;DHT22;3382;51.576;8.076;2023-03-03T03:18:00;2.70;99.90
6690;DHT22;3382;51.576;8.076;2023-03-03T03:20:26;2.70;99.90
6690;DHT22;3382;51.576;8.076;2023-03-03T03:22:52;2.70;99.90
6690;DHT22;3382;51.576;8.076;2023-03-03T03:25:17;2.70;99.90
6690;DHT22;3382;51.576;8.076;2023-03-03T03:27:43;2.70;99.90
6690;DHT22;3382;51.576;8.076;2023-03-03T03:30:09;2.70;99.90
6690;DHT22;3382;51.576;8.076;2023-03-03T03:32:35;2.70;99.90
6690;DHT22;3382;51.576;8.076;2023-03-03T03:35:01;2.70;99.90
6690;DHT22;3382;51.576;8.076;2023-03-03T03:37:26;2.70;99.90
6690;DHT22;3382;51.576;8.076;2023-03-03T03:39:52;2.70;99.90
6690;DHT22;3382;51.576;8.076;2023-03-03T03:42:18;2.70;99.90
6690;DHT22;3382;51.576;8.076;2023-03-03T03:44:44;2.70;99.90
6690;DHT22;3382;51.576;8.076;2023-03-03T03:47:10;2.60;99.90
6690;DHT22;3382;51.576;8.076;2023-03-03T03:49:35;2.70;99.90
6690;DHT22;3382;51.576;8.076;2023-03-03T03:52:01;2.80;99.90
6690;DHT22;3382;51.576;8.076;2023-03-03T03:54:27;2.80;99.90
6690;DHT22;3382;51.576;8.076;2023-03-03T03:56:53;2.80;99.90
6690;DHT22;3382;51.576;8.076;2023-03-03T03:59:19;2.80;99.90
6690;DHT22;3382;51.576;8.076;2023-03-03T04:01:45;2.80;99.90
6690;DHT22;3382;51.576;8.076;2023-03-03T04:04:12;2.80;99.90
6690;DHT22;3382;51.576;8.076;2023-03-03T04:06:38;2.80;99.90
6690;DHT22;3382;51.576;8.076;2023-03-03T04:09:04;2.80;99.90
6690;DHT22;3382;51.576;8.076;2023-03-03T04:11:30;2.80;99.90
6690;DHT22;3382;51.576;8.076;2023-03-03T04:13:55;2.80;99.90
6690;DHT22;3382;51.576;8.076;2023-03-03T04:16:21;2.80;99.90
6690;DHT22;3382;51.576;8.076;2023-03-03T04:18:47;2.70;99.90
6690;DHT22;3382;51.576;8.076;2023-03-03T04:21:13;3.00;99.90
6690;DHT22;3382;51.576;8.076;2023-03-03T04:23:39;2.70;99.90
6690;DHT22;3382;51.576;8.076;2023-03-03T04:26:05;2.80;99.90
6690;DHT22;3382;51.576;8.076;2023-03-03T04:28:30;2.70;99.90
6690;DHT22;3382;51.576;8.076;2023-03-03T04:30:56;2.80;99.90
6690;DHT22;3382;51.576;8.076;2023-03-03T04:33:21;2.80;99.90
6690;DHT22;3382;51.576;8.076;2023-03-03T04:35:47;2.80;99.90
6690;DHT22;3382;51.576;8.076;2023-03-03T04:38:13;2.90;99.90
6690;DHT22;3382;51.576;8.076;2023-03-03T04:40:41;2.90;99.90
6690;DHT22;3382;51.576;8.076;2023-03-03T04:43:07;2.90;99.90
6690;DHT22;3382;51.576;8.076;2023-03-03T04:45:32;2.90;99.90
6690;DHT22;3382;51.576;8.076;2023-03-03T04:47:58;2.90;99.90
6690;DHT22;3382;51.576;8.076;2023-03-03T04:50:24;2.90;99.90
6690;DHT22;3382;51.576;8.076;2023-03-03T04:52:49;2.90;99.90
6690;DHT22;3382;51.576;8.076;2023-03-03T04:55:15;3.00;99.90
6690;DHT22;3382;51.576;8.076;2023-03-03T04:57:41;3.00;99.90
6690;DHT22;3382;51.576;8.076;2023-03-03T05:00:09;3.00;99.90
6690;DHT22;3382;51.576;8.076;2023-03-03T05:02:34;3.00;99.90
6690;DHT22;3382;51.576;8.076;2023-03-03T05:05:00;3.00;99.90
6690;DHT22;3382;51.576;8.076;2023-03-03T05:07:26;3.00;99.90
6690;DHT22;3382;51.576;8.076;2023-03-03T05:09:51;3.00;99.90
6690;DHT22;3382;51.576;8.076;2023-03-03T05:12:17;3.00;99.90
6690;DHT22;3382;51.576;8.076;2023-03-03T05:14:42;3.00;99.90
6690;DHT22;3382;51.576;8.076;2023-03-03T05:17:08;2.90;99.90
6690;DHT22;3382;51.576;8.076;2023-03-03T05:19:34;2.90;99.90
6690;DHT22;3382;51.576;8.076;2023-03-03T05:22:00;2.80;99.90
6690;DHT22;3382;51.576;8.076;2023-03-03T05:24:26;2.80;99.90
6690;DHT22;3382;51.576;8.076;2023-03-03T05:26:52;3.00;99.90
6690;DHT22;3382;51.576;8.076;2023-03-03T05:29:18;2.90;99.90
6690;DHT22;3382;51.576;8.076;2023-03-03T05:31:43;3.00;99.90
6690;DHT22;3382;51.576;8.076;2023-03-03T05:34:09;3.00;99.90
6690;DHT22;3382;51.576;8.076;2023-03-03T05:36:35;3.20;99.90
6690;DHT22;3382;51.576;8.076;2023-03-03T05:39:00;3.00;99.90
6690;DHT22;3382;51.576;8.076;2023-03-03T05:41:26;3.00;99.90
6690;DHT22;3382;51.576;8.076;2023-03-03T05:43:52;3.10;99.90
6690;DHT22;3382;51.576;8.076;2023-03-03T05:46:17;3.10;99.90
6690;DHT22;3382;51.576;8.076;2023-03-03T05:48:43;3.10;99.90
6690;DHT22;3382;51.576;8.076;2023-03-03T05:51:09;3.10;99.90
6690;DHT22;3382;51.576;8.076;2023-03-03T05:53:35;3.30;99.90
6690;DHT22;3382;51.576;8.076;2023-03-03T05:56:01;3.30;99.90
6690;DHT22;3382;51.576;8.076;2023-03-03T05:58:26;3.40;99.90
6690;DHT22;3382;51.576;8.076;2023-03-03T06:00:52;3.40;99.90
6690;DHT22;3382;51.576;8.076;2023-03-03T06:03:18;3.40;99.90
6690;DHT22;3382;51.576;8.076;2023-03-03T06:05:44;3.40;99.90
6690;DHT22;3382;51.576;8.076;2023-03-03T06:08:09;3.50;99.90
6690;DHT22;3382;51.576;8.076;2023-03-03T06:10:35;3.50;99.90
6690;DHT22;3382;51.576;8.076;2023-03-03T06:13:01;3.50;99.90
6690;DHT22;3382;51.576;8.076;2023-03-03T06:15:26;3.60;99.90
6690;DHT22;3382;51.576;8.076;2023-03-03T06:17:52;3.60;99.90
6690;DHT22;3382;51.576;8.076;2023-03-03T06:20:18;3.60;99.90
6690;DHT22;3382;51.576;8.076;2023-03-03T06:22:43;3.60;99.90
6690;DHT22;3382;51.576;8.076;2023-03-03T06:25:09;3.60;99.90
6690;DHT22;3382;51.576;8.076;2023-03-03T06:27:35;3.70;99.90
6690;DHT22;3382;51.576;8.076;2023-03-03T06:30:01;3.90;99.90
6690;DHT22;3382;51.576;8.076;2023-03-03T06:32:26;4.00;99.90
6690;DHT22;3382;51.576;8.076;2023-03-03T06:34:52;4.40;99.90
6690;DHT22;3382;51.576;8.076;2023-03-03T06:37:18;4.00;99.90
6690;DHT22;3382;51.576;8.076;2023-03-03T06:39:43;3.80;99.90
6690;DHT22;3382;51.576;8.076;2023-03-03T06:42:09;3.90;99.90
6690;DHT22;3382;51.576;8.076;2023-03-03T06:44:35;5.00;99.90
6690;DHT22;3382;51.576;8.076;2023-03-03T06:47:01;4.30;99.90
6690;DHT22;3382;51.576;8.076;2023-03-03T06:49:26;4.00;99.90
6690;DHT22;3382;51.576;8.076;2023-03-03T06:51:52;3.70;99.90
6690;DHT22;3382;51.576;8.076;2023-03-03T06:54:24;3.60;99.90
6690;DHT22;3382;51.576;8.076;2023-03-03T06:56:54;3.50;99.90
6690;DHT22;3382;51.576;8.076;2023-03-03T06:59:22;3.50;99.90
6690;DHT22;3382;51.576;8.076;2023-03-03T07:01:49;3.50;99.90
6690;DHT22;3382;51.576;8.076;2023-03-03T07:04:21;3.40;99.90
6690;DHT22;3382;51.576;8.076;2023-03-03T07:06:50;3.60;99.90
6690;DHT22;3382;51.576;8.076;2023-03-03T07:09:27;3.30;99.90
6690;DHT22;3382;51.576;8.076;2023-03-03T07:12:00;3.20;99.90
6690;DHT22;3382;51.576;8.076;2023-03-03T07:14:25;3.30;99.90
6690;DHT22;3382;51.576;8.076;2023-03-03T07:16:57;3.30;99.90
6690;DHT22;3382;51.576;8.076;2023-03-03T07:19:32;3.30;99.90
6690;DHT22;3382;51.576;8.076;2023-03-03T07:21:57;3.30;99.90
6690;DHT22;3382;51.576;8.076;2023-03-03T07:24:29;3.50;99.90
6690;DHT22;3382;51.576;8.076;2023-03-03T07:29:27;3.50;99.90
6690;DHT22;3382;51.576;8.076;2023-03-03T07:31:59;3.40;99.90
6690;DHT22;3382;51.576;8.076;2023-03-03T07:34:36;3.30;99.90
6690;DHT22;3382;51.576;8.076;2023-03-03T07:37:09;3.20;99.90
6690;DHT22;3382;51.576;8.076;2023-03-03T07:39:38;3.20;99.90
6690;DHT22;3382;51.576;8.076;2023-03-03T07:42:23;3.20;99.90
6690;DHT22;3382;51.576;8.076;2023-03-03T07:44:58;3.20;99.90
6690;DHT22;3382;51.576;8.076;2023-03-03T07:49:53;3.30;99.90
6690;DHT22;3382;51.576;8.076;2023-03-03T07:52:41;3.70;99.90
6690;DHT22;3382;51.576;8.076;2023-03-03T07:55:37;3.90;99.90
6690;DHT22;3382;51.576;8.076;2023-03-03T08:03:19;3.80;99.90
6690;DHT22;3382;51.576;8.076;2023-03-03T08:05:49;3.90;99.90
6690;DHT22;3382;51.576;8.076;2023-03-03T08:08:28;3.90;99.90
6690;DHT22;3382;51.576;8.076;2023-03-03T08:10:57;3.90;99.90
6690;DHT22;3382;51.576;8.076;2023-03-03T08:18:52;3.90;99.90
6690;DHT22;3382;51.576;8.076;2023-03-03T08:21:25;3.90;99.90
6690;DHT22;3382;51.576;8.076;2023-03-03T08:23:51;3.90;99.90
6690;DHT22;3382;51.576;8.076;2023-03-03T08:26:22;4.00;99.90
6690;DHT22;3382;51.576;8.076;2023-03-03T08:28:49;3.80;99.90
6690;DHT22;3382;51.576;8.076;2023-03-03T08:31:14;3.80;99.90
6690;DHT22;3382;51.576;8.076;2023-03-03T08:33:42;3.90;99.90
6690;DHT22;3382;51.576;8.076;2023-03-03T08:36:08;4.00;99.90
6690;DHT22;3382;51.576;8.076;2023-03-03T08:38:34;4.00;99.90
6690;DHT22;3382;51.576;8.076;2023-03-03T08:41:00;4.10;99.90
6690;DHT22;3382;51.576;8.076;2023-03-03T08:43:26;4.20;99.90
6690;DHT22;3382;51.576;8.076;2023-03-03T08:45:57;4.20;99.90
6690;DHT22;3382;51.576;8.076;2023-03-03T08:48:24;4.20;99.90
6690;DHT22;3382;51.576;8.076;2023-03-03T08:50:50;4.20;99.90
6690;DHT22;3382;51.576;8.076;2023-03-03T08:53:17;4.20;99.90
6690;DHT22;3382;51.576;8.076;2023-03-03T08:55:44;4.20;99.90
6690;DHT22;3382;51.576;8.076;2023-03-03T08:58:10;4.20;99.90
6690;DHT22;3382;51.576;8.076;2023-03-03T09:00:35;4.20;99.90
6690;DHT22;3382;51.576;8.076;2023-03-03T09:03:02;4.30;99.90
6690;DHT22;3382;51.576;8.076;2023-03-03T09:05:28;4.70;99.90
6690;DHT22;3382;51.576;8.076;2023-03-03T09:07:54;5.20;99.90
6690;DHT22;3382;51.576;8.076;2023-03-03T09:10:23;4.80;99.90
6690;DHT22;3382;51.576;8.076;2023-03-03T09:12:52;4.50;99.90
6690;DHT22;3382;51.576;8.076;2023-03-03T09:15:25;4.30;99.90
6690;DHT22;3382;51.576;8.076;2023-03-03T09:17:53;4.20;99.90
6690;DHT22;3382;51.576;8.076;2023-03-03T09:20:37;4.20;99.90
6690;DHT22;3382;51.576;8.076;2023-03-03T09:31:47;3.90;99.90
6690;DHT22;3382;51.576;8.076;2023-03-03T09:37:01;3.90;99.90
6690;DHT22;3382;51.576;8.076;2023-03-03T09:39:39;3.90;99.90
6690;DHT22;3382;51.576;8.076;2023-03-03T09:55:57;3.90;99.90
6690;DHT22;3382;51.576;8.076;2023-03-03T10:17:50;3.90;99.90
6690;DHT22;3382;51.576;8.076;2023-03-03T10:20:29;3.90;99.90
6690;DHT22;3382;51.576;8.076;2023-03-03T10:23:17;3.90;99.90
6690;DHT22;3382;51.576;8.076;2023-03-03T10:39:53;3.90;99.90
6690;DHT22;3382;51.576;8.076;2023-03-03T10:48:02;3.90;99.90
6690;DHT22;3382;51.576;8.076;2023-03-03T11:04:32;4.00;99.90
6690;DHT22;3382;51.576;8.076;2023-03-03T11:09:55;4.10;99.90
6690;DHT22;3382;51.576;8.076;2023-03-03T11:24:12;4.30;99.90
6690;DHT22;3382;51.576;8.076;2023-03-03T11:30:27;4.30;99.90
6690;DHT22;3382;51.576;8.076;2023-03-03T11:43:43;4.50;99.90
6690;DHT22;3382;51.576;8.076;2023-03-03T11:46:17;4.50;99.90
6690;DHT22;3382;51.576;8.076;2023-03-03T11:51:31;4.60;99.90
6690;DHT22;3382;51.576;8.076;2023-03-03T11:54:37;4.60;99.90
6690;DHT22;3382;51.576;8.076;2023-03-03T11:57:15;4.70;99.90
6690;DHT22;3382;51.576;8.076;2023-03-03T12:08:27;4.80;99.90
6690;DHT22;3382;51.576;8.076;2023-03-03T12:13:45;4.90;99.90
6690;DHT22;3382;51.576;8.076;2023-03-03T12:16:37;4.90;99.90
6690;DHT22;3382;51.576;8.076;2023-03-03T12:30:46;5.00;99.90
6690;DHT22;3382;51.576;8.076;2023-03-03T12:36:43;5.30;99.90
6690;DHT22;3382;51.576;8.076;2023-03-03T12:39:31;5.30;99.90
6690;DHT22;3382;51.576;8.076;2023-03-03T12:42:21;5.20;99.90
6690;DHT22;3382;51.576;8.076;2023-03-03T12:58:43;5.40;99.90
6690;DHT22;3382;51.576;8.076;2023-03-03T13:01:43;5.40;99.90
6690;DHT22;3382;51.576;8.076;2023-03-03T13:15:29;5.50;99.90
6690;DHT22;3382;51.576;8.076;2023-03-03T13:21:27;5.80;99.90
6690;DHT22;3382;51.576;8.076;2023-03-03T13:26:49;5.70;99.90
6690;DHT22;3382;51.576;8.076;2023-03-03T13:29:27;5.70;99.90
6690;DHT22;3382;51.576;8.076;2023-03-03T13:31:57;5.70;99.90
6690;DHT22;3382;51.576;8.076;2023-03-03T13:37:17;5.70;99.90
6690;DHT22;3382;51.576;8.076;2023-03-03T13:42:43;6.60;99.90
6690;DHT22;3382;51.576;8.076;2023-03-03T13:45:28;6.40;99.90
6690;DHT22;3382;51.576;8.076;2023-03-03T13:50:43;6.20;99.90
6690;DHT22;3382;51.576;8.076;2023-03-03T14:07:17;6.20;99.90
6690;DHT22;3382;51.576;8.076;2023-03-03T14:13:30;6.20;99.90
6690;DHT22;3382;51.576;8.076;2023-03-03T14:15:33;6.20;99.90
6690;DHT22;3382;51.576;8.076;2023-03-03T14:20:55;7.80;99.90
6690;DHT22;3382;51.576;8.076;2023-03-03T14:23:40;8.90;99.90
6690;DHT22;3382;51.576;8.076;2023-03-03T14:26:09;9.80;99.90
6690;DHT22;3382;51.576;8.076;2023-03-03T14:28:42;10.60;99.90
6690;DHT22;3382;51.576;8.076;2023-03-03T14:31:39;11.10;99.90
6690;DHT22;3382;51.576;8.076;2023-03-03T14:36:39;11.40;99.90
6690;DHT22;3382;51.576;8.076;2023-03-03T14:39:35;10.60;99.90
6690;DHT22;3382;51.576;8.076;2023-03-03T14:42:09;10.30;99.90
6690;DHT22;3382;51.576;8.076;2023-03-03T14:44:56;10.70;99.90
6690;DHT22;3382;51.576;8.076;2023-03-03T14:47:26;11.40;99.90
6690;DHT22;3382;51.576;8.076;2023-03-03T14:49:54;12.20;99.90
6690;DHT22;3382;51.576;8.076;2023-03-03T14:52:27;12.80;99.90
6690;DHT22;3382;51.576;8.076;2023-03-03T14:54:58;13.30;99.90
6690;DHT22;3382;51.576;8.076;2023-03-03T15:07:50;15.00;99.90
6690;DHT22;3382;51.576;8.076;2023-03-03T15:10:38;15.30;99.90
6690;DHT22;3382;51.576;8.076;2023-03-03T15:18:14;16.10;99.90
6690;DHT22;3382;51.576;8.076;2023-03-03T15:26:03;12.60;99.90
6690;DHT22;3382;51.576;8.076;2023-03-03T15:28:58;11.40;99.90
6690;DHT22;3382;51.576;8.076;2023-03-03T15:34:32;9.90;99.90
6690;DHT22;3382;51.576;8.076;2023-03-03T15:37:31;9.40;99.90
6690;DHT22;3382;51.576;8.076;2023-03-03T15:40:04;9.00;99.90
6690;DHT22;3382;51.576;8.076;2023-03-03T15:42:38;8.70;99.90
6690;DHT22;3382;51.576;8.076;2023-03-03T15:48:21;8.10;99.90
6690;DHT22;3382;51.576;8.076;2023-03-03T15:59:23;7.30;99.90
6690;DHT22;3382;51.576;8.076;2023-03-03T16:04:46;7.10;99.90
6690;DHT22;3382;51.576;8.076;2023-03-03T16:23:47;6.50;99.90
6690;DHT22;3382;51.576;8.076;2023-03-03T16:26:44;6.40;99.90
6690;DHT22;3382;51.576;8.076;2023-03-03T16:29:24;6.30;99.90
6690;DHT22;3382;51.576;8.076;2023-03-03T16:42:50;6.90;99.90
6690;DHT22;3382;51.576;8.076;2023-03-03T16:45:23;6.70;99.90
6690;DHT22;3382;51.576;8.076;2023-03-03T16:54:09;6.20;99.90
6690;DHT22;3382;51.576;8.076;2023-03-03T17:02:26;6.00;99.90
6690;DHT22;3382;51.576;8.076;2023-03-03T17:05:16;6.00;99.90
6690;DHT22;3382;51.576;8.076;2023-03-03T17:12:57;5.90;99.90
6690;DHT22;3382;51.576;8.076;2023-03-03T17:21:47;5.90;99.90
6690;DHT22;3382;51.576;8.076;2023-03-03T17:30:29;5.60;99.90
6690;DHT22;3382;51.576;8.076;2023-03-03T17:33:13;5.50;99.90
6690;DHT22;3382;51.576;8.076;2023-03-03T17:41:30;5.30;99.90
6690;DHT22;3382;51.576;8.076;2023-03-03T17:46:53;5.20;99.90
6690;DHT22;3382;51.576;8.076;2023-03-03T17:58:32;4.90;99.90
6690;DHT22;3382;51.576;8.076;2023-03-03T18:09:14;4.80;99.90
6690;DHT22;3382;51.576;8.076;2023-03-03T18:12:25;4.70;99.90
6690;DHT22;3382;51.576;8.076;2023-03-03T18:15:09;4.60;99.90
6690;DHT22;3382;51.576;8.076;2023-03-03T18:25:56;4.60;99.90
6690;DHT22;3382;51.576;8.076;2023-03-03T18:28:36;4.30;99.90
6690;DHT22;3382;51.576;8.076;2023-03-03T18:31:27;4.20;99.90
6690;DHT22;3382;51.576;8.076;2023-03-03T18:34:28;4.20;99.90
6690;DHT22;3382;51.576;8.076;2023-03-03T18:37:00;4.20;99.90
6690;DHT22;3382;51.576;8.076;2023-03-03T18:39:44;4.10;99.90
6690;DHT22;3382;51.576;8.076;2023-03-03T18:44:35;4.90;99.90
6690;DHT22;3382;51.576;8.076;2023-03-03T18:47:01;5.20;99.90
6690;DHT22;3382;51.576;8.076;2023-03-03T18:52:32;4.50;99.90
6690;DHT22;3382;51.576;8.076;2023-03-03T18:57:34;4.20;99.90
6690;DHT22;3382;51.576;8.076;2023-03-03T19:00:15;4.10;99.90
6690;DHT22;3382;51.576;8.076;2023-03-03T19:02:57;4.10;99.90
6690;DHT22;3382;51.576;8.076;2023-03-03T19:08:00;4.10;99.90
6690;DHT22;3382;51.576;8.076;2023-03-03T19:16:04;4.10;99.90
6690;DHT22;3382;51.576;8.076;2023-03-03T19:21:33;4.20;99.90
6690;DHT22;3382;51.576;8.076;2023-03-03T19:26:43;4.10;99.90
6690;DHT22;3382;51.576;8.076;2023-03-03T19:37:59;4.20;99.90
6690;DHT22;3382;51.576;8.076;2023-03-03T19:56:23;4.40;99.90
6690;DHT22;3382;51.576;8.076;2023-03-03T19:59:10;4.50;99.90
6690;DHT22;3382;51.576;8.076;2023-03-03T20:01:56;4.50;99.90
6690;DHT22;3382;51.576;8.076;2023-03-03T20:15:28;4.70;99.90
6690;DHT22;3382;51.576;8.076;2023-03-03T20:21:15;4.70;99.90
6690;DHT22;3382;51.576;8.076;2023-03-03T20:24:20;4.80;99.90
6690;DHT22;3382;51.576;8.076;2023-03-03T20:26:59;4.80;99.90
6690;DHT22;3382;51.576;8.076;2023-03-03T20:29:42;4.80;99.90
6690;DHT22;3382;51.576;8.076;2023-03-03T20:43:36;4.90;99.90
6690;DHT22;3382;51.576;8.076;2023-03-03T20:46:20;5.00;99.90
6690;DHT22;3382;51.576;8.076;2023-03-03T20:54:47;5.00;99.90
6690;DHT22;3382;51.576;8.076;2023-03-03T21:06:02;5.00;99.90
6690;DHT22;3382;51.576;8.076;2023-03-03T21:11:05;5.10;99.90
6690;DHT22;3382;51.576;8.076;2023-03-03T21:13:42;5.10;99.90
6690;DHT22;3382;51.576;8.076;2023-03-03T21:19:10;5.20;99.90
6690;DHT22;3382;51.576;8.076;2023-03-03T21:21:41;5.10;99.90
6690;DHT22;3382;51.576;8.076;2023-03-03T21:24:10;5.10;99.90
6690;DHT22;3382;51.576;8.076;2023-03-03T21:30:01;5.10;99.90
6690;DHT22;3382;51.576;8.076;2023-03-03T21:32:44;5.10;99.90
6690;DHT22;3382;51.576;8.076;2023-03-03T21:35:19;5.10;99.90
6690;DHT22;3382;51.576;8.076;2023-03-03T21:37:53;5.20;99.90
6690;DHT22;3382;51.576;8.076;2023-03-03T21:42:49;5.20;99.90
6690;DHT22;3382;51.576;8.076;2023-03-03T21:45:15;5.20;99.90
6690;DHT22;3382;51.576;8.076;2023-03-03T21:47:41;5.20;99.90
6690;DHT22;3382;51.576;8.076;2023-03-03T21:50:07;5.20;99.90
6690;DHT22;3382;51.576;8.076;2023-03-03T21:52:33;5.20;99.90
6690;DHT22;3382;51.576;8.076;2023-03-03T21:54:59;5.20;99.90
6690;DHT22;3382;51.576;8.076;2023-03-03T21:57:24;5.10;99.90
6690;DHT22;3382;51.576;8.076;2023-03-03T21:59:50;5.20;99.90
6690;DHT22;3382;51.576;8.076;2023-03-03T22:02:17;5.20;99.90
6690;DHT22;3382;51.576;8.076;2023-03-03T22:04:43;5.30;99.90
6690;DHT22;3382;51.576;8.076;2023-03-03T22:07:09;5.30;99.90
6690;DHT22;3382;51.576;8.076;2023-03-03T22:09:35;5.30;99.90
6690;DHT22;3382;51.576;8.076;2023-03-03T22:12:01;5.20;99.90
6690;DHT22;3382;51.576;8.076;2023-03-03T22:14:27;5.30;99.90
6690;DHT22;3382;51.576;8.076;2023-03-03T22:16:52;5.30;99.90
6690;DHT22;3382;51.576;8.076;2023-03-03T22:19:18;5.30;99.90
6690;DHT22;3382;51.576;8.076;2023-03-03T22:21:44;5.30;99.90
6690;DHT22;3382;51.576;8.076;2023-03-03T22:24:11;5.30;99.90
6690;DHT22;3382;51.576;8.076;2023-03-03T22:26:36;5.30;99.90
6690;DHT22;3382;51.576;8.076;2023-03-03T22:29:03;5.30;99.90
6690;DHT22;3382;51.576;8.076;2023-03-03T22:31:29;5.30;99.90
6690;DHT22;3382;51.576;8.076;2023-03-03T22:33:54;5.30;99.90
6690;DHT22;3382;51.576;8.076;2023-03-03T22:36:20;5.30;99.90
6690;DHT22;3382;51.576;8.076;2023-03-03T22:38:46;5.30;99.90
6690;DHT22;3382;51.576;8.076;2023-03-03T22:41:13;5.30;99.90
6690;DHT22;3382;51.576;8.076;2023-03-03T22:43:38;5.30;99.90
6690;DHT22;3382;51.576;8.076;2023-03-03T22:46:04;5.30;99.90
6690;DHT22;3382;51.576;8.076;2023-03-03T22:48:30;5.30;99.90
6690;DHT22;3382;51.576;8.076;2023-03-03T22:50:56;5.30;99.90
6690;DHT22;3382;51.576;8.076;2023-03-03T22:53:23;5.30;99.90
6690;DHT22;3382;51.576;8.076;2023-03-03T22:55:49;5.50;99.90
6690;DHT22;3382;51.576;8.076;2023-03-03T22:58:14;5.30;99.90
6690;DHT22;3382;51.576;8.076;2023-03-03T23:00:44;5.30;99.90
6690;DHT22;3382;51.576;8.076;2023-03-03T23:03:11;5.30;99.90
6690;DHT22;3382;51.576;8.076;2023-03-03T23:05:37;5.40;99.90
6690;DHT22;3382;51.576;8.076;2023-03-03T23:08:05;5.80;99.90
6690;DHT22;3382;51.576;8.076;2023-03-03T23:10:31;5.40;99.90
6690;DHT22;3382;51.576;8.076;2023-03-03T23:12:57;5.40;99.90
6690;DHT22;3382;51.576;8.076;2023-03-03T23:15:22;5.30;99.90
6690;DHT22;3382;51.576;8.076;2023-03-03T23:17:48;5.30;99.90
6690;DHT22;3382;51.576;8.076;2023-03-03T23:20:20;5.30;99.90
6690;DHT22;3382;51.576;8.076;2023-03-03T23:22:46;5.30;99.90
6690;DHT22;3382;51.576;8.076;2023-03-03T23:25:12;5.50;99.90
6690;DHT22;3382;51.576;8.076;2023-03-03T23:27:39;5.40;99.90
6690;DHT22;3382;51.576;8.076;2023-03-03T23:30:06;5.30;99.90
6690;DHT22;3382;51.576;8.076;2023-03-03T23:32:32;5.40;99.90
6690;DHT22;3382;51.576;8.076;2023-03-03T23:34:58;5.40;99.90
6690;DHT22;3382;51.576;8.076;2023-03-03T23:37:24;5.40;99.90
6690;DHT22;3382;51.576;8.076;2023-03-03T23:39:50;5.30;99.90
6690;DHT22;3382;51.576;8.076;2023-03-03T23:42:15;5.40;99.90
6690;DHT22;3382;51.576;8.076;2023-03-03T23:44:41;5.40;99.90
6690;DHT22;3382;51.576;8.076;2023-03-03T23:47:08;5.40;99.90
6690;DHT22;3382;51.576;8.076;2023-03-03T23:49:34;5.40;99.90
6690;DHT22;3382;51.576;8.076;2023-03-03T23:52:00;5.60;99.90
6690;DHT22;3382;51.576;8.076;2023-03-03T23:54:26;5.50;99.90
6690;DHT22;3382;51.576;8.076;2023-03-03T23:56:52;5.60;99.90
6690;DHT22;3382;51.576;8.076;2023-03-03T23:59:18;5.40;99.90
